Time;durP1;ratioP1;P1;durP2;ratioP2;P2;SDS_P1;SDS_P2;PMS_P1;PMS_P2;Temp;Humidity;BMP_temperature;BMP_pressure;BME280_temperature;BME280_humidity;BME280_pressure;Samples;Min_cycle;Max_cycle;Signal;HPM_P1;HPM_P2
2021/10/20 00:00:28;;;;;;;3.67;2.90;;;17.50;86.80;;;;;;4988645;28;20027;-86
2021/10/20 00:02:55;;;;;;;3.13;2.40;;;17.50;86.80;;;;;;4989578;28;20038;-81
2021/10/20 00:05:21;;;;;;;2.95;2.63;;;17.50;86.80;;;;;;4990009;28;20080;-82
2021/10/20 00:07:48;;;;;;;2.53;2.33;;;17.50;86.80;;;;;;4989780;28;20033;-85
2021/10/20 00:10:17;;;;;;;2.42;2.05;;;17.50;86.80;;;;;;5007752;28;20034;-77
2021/10/20 00:12:44;;;;;;;2.92;2.67;;;17.50;86.80;;;;;;5007875;28;20420;-78
2021/10/20 00:15:13;;;;;;;3.28;2.95;;;17.40;86.70;;;;;;5009564;28;20533;-84
2021/10/20 00:17:39;;;;;;;2.90;2.47;;;17.40;86.70;;;;;;5024599;28;20080;-87
2021/10/20 00:20:11;;;;;;;2.80;2.55;;;17.40;86.70;;;;;;5008318;28;20501;-80
2021/10/20 00:22:40;;;;;;;2.90;2.30;;;17.40;86.70;;;;;;5008458;28;20038;-85
2021/10/20 00:25:07;;;;;;;2.88;2.17;;;17.40;86.70;;;;;;4995870;28;20033;-80
2021/10/20 00:27:33;;;;;;;2.47;2.17;;;17.30;86.60;;;;;;5007574;28;20405;-81
2021/10/20 00:30:00;;;;;;;2.40;2.20;;;17.40;86.70;;;;;;4991164;28;20497;-85
2021/10/20 00:32:25;;;;;;;2.65;2.28;;;17.40;86.80;;;;;;4989655;28;20042;-87
2021/10/20 00:34:51;;;;;;;2.53;2.30;;;17.30;86.60;;;;;;4989127;28;20029;-85
2021/10/20 00:37:17;;;;;;;2.35;2.15;;;17.30;86.60;;;;;;4988906;28;20031;-83
2021/10/20 00:39:44;;;;;;;2.60;2.30;;;17.30;86.70;;;;;;4988910;28;20038;-77
2021/10/20 00:42:10;;;;;;;2.95;2.05;;;17.30;86.70;;;;;;4988317;28;20483;-81
2021/10/20 00:44:45;;;;;;;3.58;1.98;;;17.30;86.70;;;;;;4988717;28;20057;-86
2021/10/20 00:47:11;;;;;;;3.03;2.20;;;17.30;86.80;;;;;;4987352;28;20112;-84
2021/10/20 00:49:37;;;;;;;2.70;1.88;;;17.30;86.80;;;;;;5002183;28;20046;-85
2021/10/20 00:52:03;;;;;;;3.80;2.58;;;17.30;86.80;;;;;;5008270;28;20045;-83
2021/10/20 00:54:29;;;;;;;1.92;1.77;;;17.30;86.80;;;;;;4994714;28;20125;-84
2021/10/20 00:56:55;;;;;;;2.97;2.13;;;17.30;86.80;;;;;;5008861;28;20096;-80
2021/10/20 00:59:21;;;;;;;2.42;2.22;;;17.30;86.80;;;;;;5008193;28;20034;-82
2021/10/20 01:01:48;;;;;;;2.30;1.95;;;17.30;86.80;;;;;;5008866;28;20071;-87
2021/10/20 01:04:13;;;;;;;2.13;1.88;;;17.20;86.70;;;;;;4995313;28;20029;-80
2021/10/20 01:06:40;;;;;;;2.58;2.28;;;17.30;86.80;;;;;;4988738;28;20038;-84
2021/10/20 01:09:05;;;;;;;2.85;1.92;;;17.20;86.60;;;;;;4988688;28;20392;-85
2021/10/20 01:11:31;;;;;;;3.22;2.40;;;17.30;87.30;;;;;;4989083;28;20038;-89
2021/10/20 01:13:57;;;;;;;2.60;1.90;;;17.20;86.70;;;;;;4987982;28;20045;-84
2021/10/20 01:16:24;;;;;;;2.20;1.92;;;17.20;86.70;;;;;;4988785;28;20062;-81
2021/10/20 01:18:50;;;;;;;1.80;1.70;;;17.20;86.70;;;;;;4995500;28;20065;-84
2021/10/20 01:21:18;;;;;;;3.67;2.20;;;17.20;86.70;;;;;;4993530;28;20434;-79
2021/10/20 01:23:46;;;;;;;3.15;2.35;;;17.20;86.70;;;;;;4987770;28;20101;-87
2021/10/20 01:26:12;;;;;;;1.98;1.60;;;17.20;86.70;;;;;;5002620;28;20103;-83
2021/10/20 01:28:38;;;;;;;2.67;2.42;;;17.20;86.70;;;;;;5003099;28;20038;-77
2021/10/20 01:31:04;;;;;;;1.90;1.70;;;17.20;86.70;;;;;;4988661;28;20030;-86
2021/10/20 01:33:31;;;;;;;2.88;2.13;;;17.20;86.70;;;;;;5004704;28;20307;-79
2021/10/20 01:35:57;;;;;;;2.35;2.05;;;17.20;86.80;;;;;;4989898;28;20045;-83
2021/10/20 01:38:23;;;;;;;2.75;2.20;;;17.20;86.80;;;;;;4989675;28;20038;-79
2021/10/20 01:40:48;;;;;;;3.08;1.85;;;17.20;86.80;;;;;;4989945;28;20486;-80
2021/10/20 01:43:14;;;;;;;2.25;2.05;;;17.20;86.80;;;;;;4989166;28;20061;-79
2021/10/20 01:45:40;;;;;;;3.78;2.45;;;17.20;86.80;;;;;;4990061;28;20374;-77
2021/10/20 01:48:06;;;;;;;2.38;2.17;;;17.20;86.80;;;;;;4992674;28;20198;-87
2021/10/20 01:50:32;;;;;;;3.10;2.03;;;17.10;86.60;;;;;;4992877;28;20034;-80
2021/10/20 01:52:58;;;;;;;3.15;2.47;;;17.10;86.70;;;;;;4992121;28;20034;-85
2021/10/20 01:55:24;;;;;;;2.25;2.03;;;17.10;86.70;;;;;;5001875;28;20037;-77
2021/10/20 01:57:50;;;;;;;3.15;2.30;;;17.10;86.70;;;;;;5012212;28;20145;-83
2021/10/20 02:00:16;;;;;;;2.58;1.88;;;17.10;86.70;;;;;;5011786;28;20058;-79
2021/10/20 02:02:43;;;;;;;4.55;1.92;;;17.10;86.70;;;;;;5012198;28;20053;-80
2021/10/20 02:05:10;;;;;;;1.55;1.42;;;17.10;87.30;;;;;;5011558;28;20032;-83
2021/10/20 02:07:37;;;;;;;2.38;1.67;;;17.10;86.70;;;;;;5011812;28;20068;-79
2021/10/20 02:10:09;;;;;;;2.58;2.00;;;17.10;86.80;;;;;;5011483;28;20018;-82
2021/10/20 02:12:35;;;;;;;1.98;1.73;;;17.10;86.80;;;;;;5011762;28;20041;-82
2021/10/20 02:15:01;;;;;;;1.88;1.60;;;17.10;86.80;;;;;;5012016;28;20022;-84
2021/10/20 02:17:27;;;;;;;1.75;1.55;;;17.10;86.80;;;;;;5011787;28;20042;-88
2021/10/20 02:19:53;;;;;;;1.75;1.65;;;17.10;86.80;;;;;;5027331;28;20033;-89
2021/10/20 02:22:19;;;;;;;2.15;1.60;;;17.10;86.80;;;;;;5026992;28;20034;-88
2021/10/20 02:24:45;;;;;;;2.20;2.00;;;17.00;86.60;;;;;;5008457;28;20306;-91
2021/10/20 02:27:12;;;;;;;1.92;1.70;;;17.00;86.60;;;;;;5007632;28;20608;-87
2021/10/20 02:29:38;;;;;;;2.20;1.80;;;17.00;86.70;;;;;;4991702;28;20044;-88
2021/10/20 02:32:04;;;;;;;2.05;1.90;;;17.00;86.70;;;;;;4990928;28;20053;-88
2021/10/20 02:34:30;;;;;;;1.60;1.50;;;17.00;86.70;;;;;;4991989;28;20089;-89
2021/10/20 02:36:56;;;;;;;2.95;2.08;;;17.00;86.70;;;;;;4990568;28;20034;-87
2021/10/20 02:39:22;;;;;;;1.60;1.45;;;16.90;86.60;;;;;;4991836;28;20046;-88
2021/10/20 02:41:48;;;;;;;1.52;1.33;;;16.90;86.60;;;;;;4991733;28;20105;-84
2021/10/20 02:44:14;;;;;;;1.55;1.20;;;16.90;86.60;;;;;;4990053;28;20482;-83
2021/10/20 02:46:40;;;;;;;2.80;1.77;;;16.90;86.60;;;;;;5006902;28;20038;-88
2021/10/20 02:49:06;;;;;;;1.83;1.58;;;16.90;86.60;;;;;;4991585;28;20061;-86
2021/10/20 02:51:32;;;;;;;1.42;1.33;;;16.90;86.70;;;;;;4991504;28;20072;-87
2021/10/20 02:53:59;;;;;;;2.10;1.90;;;16.90;86.70;;;;;;4991646;28;20030;-87
2021/10/20 02:56:26;;;;;;;1.85;1.70;;;16.90;86.70;;;;;;5008951;28;20029;-86
2021/10/20 02:58:52;;;;;;;1.50;1.40;;;16.90;86.80;;;;;;5011270;28;20092;-87
2021/10/20 03:01:18;;;;;;;1.52;1.42;;;16.90;87.30;;;;;;5011478;28;20041;-90
2021/10/20 03:03:45;;;;;;;1.70;1.60;;;16.90;86.80;;;;;;5011460;28;20417;-87
2021/10/20 03:06:15;;;;;;;1.77;1.65;;;16.90;86.80;;;;;;5011355;28;20025;-90
2021/10/20 03:08:41;;;;;;;1.60;1.50;;;16.90;86.90;;;;;;5011628;28;20215;-87
2021/10/20 03:11:07;;;;;;;4.70;2.17;;;16.90;86.90;;;;;;5011338;28;20030;-87
2021/10/20 03:13:33;;;;;;;2.08;1.63;;;16.80;86.70;;;;;;5011459;28;20061;-88
2021/10/20 03:15:59;;;;;;;1.67;1.50;;;16.90;86.90;;;;;;5010844;28;20479;-83
2021/10/20 03:18:25;;;;;;;1.83;1.73;;;16.80;86.70;;;;;;5012091;28;20046;-89
2021/10/20 03:20:51;;;;;;;2.40;1.40;;;16.80;86.70;;;;;;5011752;28;20559;-88
2021/10/20 03:23:17;;;;;;;1.80;1.50;;;16.80;86.70;;;;;;5011869;28;20042;-90
2021/10/20 03:25:43;;;;;;;3.17;1.58;;;16.80;86.70;;;;;;5011299;28;20034;-85
2021/10/20 03:28:09;;;;;;;2.03;1.40;;;16.80;86.70;;;;;;5011408;28;20096;-88
2021/10/20 03:30:35;;;;;;;2.42;1.30;;;16.80;86.70;;;;;;5010494;28;20156;-88
2021/10/20 03:33:01;;;;;;;1.50;1.35;;;16.70;86.60;;;;;;5011150;28;20160;-89
2021/10/20 03:35:27;;;;;;;1.85;1.52;;;16.70;86.60;;;;;;5010308;28;20037;-89
2021/10/20 03:37:53;;;;;;;2.13;1.30;;;16.70;86.60;;;;;;5011360;28;20116;-86
2021/10/20 03:40:19;;;;;;;2.72;1.92;;;16.70;86.70;;;;;;5010760;28;20030;-85
2021/10/20 03:42:46;;;;;;;2.88;1.73;;;16.70;86.70;;;;;;5011340;28;20038;-82
2021/10/20 03:45:13;;;;;;;2.85;1.70;;;16.70;86.70;;;;;;5010126;28;20041;-83
2021/10/20 03:47:39;;;;;;;1.90;1.65;;;16.70;86.80;;;;;;5012204;28;20062;-85
2021/10/20 03:50:06;;;;;;;2.28;1.80;;;16.70;86.80;;;;;;5013901;28;20029;-85
2021/10/20 03:52:32;;;;;;;2.85;1.90;;;16.70;86.80;;;;;;5014574;28;20033;-86
2021/10/20 03:54:58;;;;;;;2.83;1.70;;;16.70;86.80;;;;;;5029355;28;20061;-86
2021/10/20 03:57:24;;;;;;;2.05;1.85;;;16.70;86.80;;;;;;5014288;28;20080;-83
2021/10/20 03:59:50;;;;;;;2.33;1.63;;;16.70;86.80;;;;;;5014113;28;20029;-83
2021/10/20 04:02:16;;;;;;;1.77;1.48;;;16.70;86.80;;;;;;5029354;28;20033;-87
2021/10/20 04:04:42;;;;;;;4.00;1.75;;;16.60;86.60;;;;;;5014373;28;20477;-86
2021/10/20 04:07:08;;;;;;;2.05;1.52;;;16.60;86.60;;;;;;5029338;28;20026;-85
2021/10/20 04:09:34;;;;;;;2.40;2.10;;;16.60;86.70;;;;;;5014383;28;20034;-89
2021/10/20 04:12:00;;;;;;;2.25;1.50;;;16.60;86.70;;;;;;5014117;28;20229;-87
2021/10/20 04:14:26;;;;;;;3.70;1.70;;;16.60;86.70;;;;;;5013385;28;20379;-81
2021/10/20 04:16:52;;;;;;;2.55;1.75;;;16.50;86.60;;;;;;5013956;28;20033;-80
2021/10/20 04:19:18;;;;;;;2.15;1.65;;;16.50;86.60;;;;;;5013982;28;20045;-86
2021/10/20 04:21:44;;;;;;;2.33;1.73;;;16.50;86.60;;;;;;5012475;28;20061;-82
2021/10/20 04:24:10;;;;;;;3.63;2.70;;;16.50;86.70;;;;;;5013773;28;20038;-86
2021/10/20 04:26:36;;;;;;;2.33;1.70;;;16.50;86.70;;;;;;5013562;28;20388;-87
2021/10/20 04:29:02;;;;;;;3.53;2.15;;;16.50;86.70;;;;;;5013628;28;20032;-83
2021/10/20 04:31:28;;;;;;;2.85;2.05;;;16.50;86.70;;;;;;5013326;28;20025;-87
2021/10/20 04:33:54;;;;;;;3.28;2.17;;;16.50;86.70;;;;;;5013832;28;20117;-78
2021/10/20 04:36:20;;;;;;;1.77;1.35;;;16.50;86.70;;;;;;5013396;28;20025;-83
2021/10/20 04:38:45;;;;;;;1.98;1.63;;;16.40;86.50;;;;;;5013749;28;20046;-83
2021/10/20 04:41:11;;;;;;;2.35;1.95;;;16.40;86.50;;;;;;5028971;28;20061;-80
2021/10/20 04:43:37;;;;;;;2.50;1.35;;;16.40;86.50;;;;;;5013697;28;20061;-86
2021/10/20 04:46:03;;;;;;;1.63;1.48;;;16.40;86.60;;;;;;5011852;28;20112;-86
2021/10/20 04:48:29;;;;;;;3.17;2.00;;;16.30;86.40;;;;;;4988217;28;20051;-81
2021/10/20 04:50:55;;;;;;;1.70;1.60;;;16.30;86.40;;;;;;4971469;28;20039;-83
2021/10/20 04:53:21;;;;;;;3.45;2.25;;;16.40;86.60;;;;;;4971503;28;20035;-84
2021/10/20 04:55:47;;;;;;;2.30;1.88;;;16.30;86.50;;;;;;4995716;28;20204;-86
2021/10/20 04:58:13;;;;;;;2.60;1.90;;;16.30;86.50;;;;;;5000851;28;20054;-85
2021/10/20 05:00:39;;;;;;;7.00;1.92;;;16.30;86.60;;;;;;4990711;28;20068;-87
2021/10/20 05:03:05;;;;;;;2.17;1.80;;;16.30;86.60;;;;;;4989376;28;20410;-83
2021/10/20 05:05:31;;;;;;;3.53;1.42;;;16.20;86.40;;;;;;4988748;28;20045;-82
2021/10/20 05:07:58;;;;;;;3.45;2.38;;;16.20;86.40;;;;;;4994772;28;20259;-88
2021/10/20 05:10:28;;;;;;;4.22;1.98;;;16.20;86.50;;;;;;5008552;28;20029;-89
2021/10/20 05:12:56;;;;;;;4.65;2.10;;;16.20;86.60;;;;;;5016621;28;20030;-82
2021/10/20 05:15:23;;;;;;;3.92;1.95;;;16.20;86.60;;;;;;4988465;28;20383;-86
2021/10/20 05:17:49;;;;;;;3.80;1.90;;;16.20;86.60;;;;;;4988925;28;20184;-88
2021/10/20 05:20:17;;;;;;;3.85;2.55;;;16.20;86.70;;;;;;4989248;28;20405;-86
2021/10/20 05:22:44;;;;;;;3.35;2.00;;;16.20;86.70;;;;;;5003469;28;20125;-80
2021/10/20 05:25:12;;;;;;;4.03;2.60;;;16.20;86.70;;;;;;4995019;28;20033;-87
2021/10/20 05:27:39;;;;;;;3.15;2.33;;;16.20;86.80;;;;;;5004254;28;20041;-84
2021/10/20 05:30:06;;;;;;;6.38;2.95;;;16.20;86.80;;;;;;4988155;28;20099;-83
2021/10/20 05:32:32;;;;;;;3.72;2.58;;;16.10;86.70;;;;;;4986879;28;20054;-85
2021/10/20 05:34:58;;;;;;;3.92;2.33;;;16.10;86.70;;;;;;4987355;28;20124;-84
2021/10/20 05:37:25;;;;;;;9.68;4.28;;;16.10;86.70;;;;;;4987650;28;20042;-85
2021/10/20 05:39:52;;;;;;;4.03;2.55;;;16.10;86.70;;;;;;5006100;28;20083;-82
2021/10/20 05:42:19;;;;;;;2.92;2.20;;;16.20;86.90;;;;;;5003957;28;20049;-84
2021/10/20 05:44:45;;;;;;;7.43;3.38;;;16.10;86.80;;;;;;4987393;28;20023;-83
2021/10/20 05:47:11;;;;;;;5.55;2.58;;;16.10;86.80;;;;;;4988187;28;20049;-83
2021/10/20 05:49:37;;;;;;;4.63;2.42;;;16.20;86.90;;;;;;4986487;28;20030;-87
2021/10/20 05:52:05;;;;;;;3.53;2.65;;;16.10;86.80;;;;;;4988064;28;20089;-82
2021/10/20 05:54:31;;;;;;;5.32;3.08;;;16.10;86.80;;;;;;5007005;28;20034;-82
2021/10/20 05:56:57;;;;;;;5.32;2.60;;;16.10;86.70;;;;;;5007246;28;20030;-83
2021/10/20 05:59:23;;;;;;;6.30;3.45;;;16.10;86.70;;;;;;4991293;28;20034;-84
2021/10/20 06:01:51;;;;;;;4.13;2.72;;;16.10;86.70;;;;;;4987884;28;20130;-86
2021/10/20 06:04:18;;;;;;;2.78;2.38;;;16.10;86.60;;;;;;4987306;28;20152;-83
2021/10/20 06:06:45;;;;;;;4.60;1.98;;;16.10;86.60;;;;;;4987273;28;20390;-85
2021/10/20 06:09:11;;;;;;;5.00;2.60;;;16.10;86.60;;;;;;5000756;28;20116;-80
2021/10/20 06:11:38;;;;;;;3.25;2.10;;;16.00;86.40;;;;;;4987723;28;20080;-86
2021/10/20 06:14:04;;;;;;;4.00;1.85;;;16.00;86.30;;;;;;4987294;28;20441;-87
2021/10/20 06:16:32;;;;;;;4.65;1.95;;;16.00;86.30;;;;;;4987431;28;20041;-84
2021/10/20 06:18:58;;;;;;;3.75;2.03;;;16.00;86.30;;;;;;4987021;28;20141;-86
2021/10/20 06:21:24;;;;;;;2.88;1.88;;;15.90;86.00;;;;;;4987753;28;20030;-83
2021/10/20 06:23:51;;;;;;;3.35;2.50;;;15.90;86.00;;;;;;5001464;28;20507;-82
2021/10/20 06:26:17;;;;;;;5.95;2.08;;;15.90;86.00;;;;;;4997107;28;20558;-83
2021/10/20 06:28:43;;;;;;;4.97;1.77;;;15.80;85.80;;;;;;4986972;28;20038;-83
2021/10/20 06:31:09;;;;;;;3.67;2.13;;;15.80;85.80;;;;;;4985884;28;20045;-80
2021/10/20 06:33:35;;;;;;;3.50;1.95;;;15.80;85.80;;;;;;5000161;28;20057;-85
2021/10/20 06:36:02;;;;;;;4.45;1.80;;;15.70;85.60;;;;;;5006829;28;20030;-85
2021/10/20 06:38:29;;;;;;;4.38;2.13;;;15.70;85.60;;;;;;4997331;28;20042;-84
2021/10/20 06:40:55;;;;;;;3.85;1.70;;;15.70;85.60;;;;;;4987019;28;20030;-83
2021/10/20 06:43:20;;;;;;;2.92;1.95;;;15.70;85.60;;;;;;4996977;28;20041;-83
2021/10/20 06:45:46;;;;;;;2.30;1.50;;;15.60;85.50;;;;;;5005439;28;20029;-78
2021/10/20 06:48:12;;;;;;;3.03;1.80;;;15.60;85.50;;;;;;4998822;28;20073;-83
2021/10/20 06:50:39;;;;;;;3.85;1.48;;;15.60;85.50;;;;;;4985111;28;20073;-83
2021/10/20 06:53:05;;;;;;;5.07;1.52;;;15.50;85.40;;;;;;4987073;28;20038;-81
2021/10/20 06:55:31;;;;;;;3.08;1.55;;;15.50;85.40;;;;;;4995549;28;20026;-85
2021/10/20 06:57:57;;;;;;;4.15;1.80;;;15.50;85.40;;;;;;5016463;28;20466;-83
2021/10/20 07:00:23;;;;;;;4.18;1.67;;;15.50;85.40;;;;;;4986797;28;20039;-81
2021/10/20 07:02:49;;;;;;;4.57;1.65;;;15.50;85.40;;;;;;4983675;28;20109;-87
2021/10/20 07:05:15;;;;;;;3.20;1.48;;;15.50;85.40;;;;;;4986245;28;20116;-85
2021/10/20 07:07:41;;;;;;;6.38;1.10;;;15.40;85.20;;;;;;5004094;28;20513;-82
2021/10/20 07:10:08;;;;;;;3.80;1.20;;;15.40;85.10;;;;;;4986325;28;20058;-80
2021/10/20 07:12:35;;;;;;;3.35;1.42;;;15.40;85.20;;;;;;4969590;28;20293;-89
2021/10/20 07:15:01;;;;;;;1.83;1.30;;;15.30;85.00;;;;;;4987354;28;20053;-90
2021/10/20 07:17:27;;;;;;;4.22;1.27;;;15.30;85.00;;;;;;5000699;28;20045;-86
2021/10/20 07:19:53;;;;;;;3.42;1.67;;;15.30;85.00;;;;;;4986387;28;20034;-84
2021/10/20 07:22:19;;;;;;;3.22;1.00;;;15.30;85.00;;;;;;4988383;28;20034;-81
2021/10/20 07:24:45;;;;;;;2.25;1.10;;;15.30;85.00;;;;;;4990263;28;20026;-83
2021/10/20 07:27:11;;;;;;;2.17;1.10;;;15.30;85.00;;;;;;4989986;28;20026;-78
2021/10/20 07:29:40;;;;;;;2.85;1.10;;;15.20;84.90;;;;;;4989981;28;20332;-85
2021/10/20 07:32:06;;;;;;;1.85;0.80;;;15.30;85.00;;;;;;4989377;28;20033;-82
2021/10/20 07:34:32;;;;;;;3.20;1.10;;;15.30;85.00;;;;;;5004809;28;20370;-83
2021/10/20 07:36:58;;;;;;;1.75;1.13;;;15.30;85.10;;;;;;4988467;28;20041;-86
2021/10/20 07:39:24;;;;;;;2.92;0.90;;;15.30;85.10;;;;;;4990281;28;20153;-86
2021/10/20 07:41:50;;;;;;;2.00;0.90;;;15.30;85.10;;;;;;4989277;28;20038;-83
2021/10/20 07:44:16;;;;;;;2.20;0.90;;;15.30;85.10;;;;;;4988795;28;20065;-85
2021/10/20 07:46:42;;;;;;;1.58;1.02;;;15.30;85.10;;;;;;5005229;28;20046;-80
2021/10/20 07:49:10;;;;;;;3.35;0.85;;;15.40;85.30;;;;;;4991164;28;20539;-86
2021/10/20 07:51:36;;;;;;;2.35;1.23;;;15.40;85.20;;;;;;4986671;28;20026;-91
2021/10/20 07:54:02;;;;;;;3.25;0.93;;;15.40;85.20;;;;;;4991876;28;20102;-83
2021/10/20 07:56:33;;;;;;;3.20;0.95;;;15.40;85.10;;;;;;5007461;28;20517;-80
2021/10/20 07:59:03;;;;;;;4.50;1.20;;;15.50;85.30;;;;;;4995762;28;20129;-90
2021/10/20 08:01:29;;;;;;;1.67;1.02;;;15.50;85.20;;;;;;4989553;28;20104;-82
2021/10/20 08:03:55;;;;;;;2.00;0.73;;;15.50;85.20;;;;;;4990132;28;20061;-82
2021/10/20 08:06:21;;;;;;;2.15;1.00;;;15.50;85.20;;;;;;4989650;28;20068;-87
2021/10/20 08:08:47;;;;;;;5.45;2.08;;;15.50;85.10;;;;;;4999388;28;20026;-85
2021/10/20 08:11:13;;;;;;;2.05;0.95;;;15.60;85.20;;;;;;5008898;28;20038;-80
2021/10/20 08:13:38;;;;;;;2.55;0.95;;;15.60;85.20;;;;;;5008903;28;20172;-82
2021/10/20 08:16:05;;;;;;;1.45;0.85;;;15.60;85.20;;;;;;5008421;28;20064;-86
2021/10/20 08:18:31;;;;;;;3.53;1.23;;;15.60;85.10;;;;;;5000324;28;20092;-86
2021/10/20 08:20:57;;;;;;;2.40;0.85;;;15.60;85.10;;;;;;4972155;28;20117;-81
2021/10/20 08:23:23;;;;;;;3.03;1.00;;;15.60;85.00;;;;;;4988965;28;20117;-76
2021/10/20 08:25:49;;;;;;;1.45;0.90;;;15.60;85.00;;;;;;5001910;28;20025;-77
2021/10/20 08:28:15;;;;;;;4.05;1.45;;;15.60;85.00;;;;;;5001627;28;20545;-81
2021/10/20 08:30:40;;;;;;;3.65;1.00;;;15.60;85.00;;;;;;4988791;28;20030;-82
2021/10/20 08:33:07;;;;;;;3.72;1.00;;;15.60;85.00;;;;;;4988268;28;20030;-81
2021/10/20 08:35:33;;;;;;;1.50;0.75;;;15.60;85.00;;;;;;4988849;28;20026;-80
2021/10/20 08:38:03;;;;;;;3.03;1.17;;;15.60;85.00;;;;;;4988621;28;20046;-81
2021/10/20 08:40:32;;;;;;;2.35;0.73;;;15.60;85.00;;;;;;4987477;28;20030;-82
2021/10/20 08:42:59;;;;;;;2.42;0.95;;;15.60;85.00;;;;;;4989714;28;20120;-88
2021/10/20 08:45:26;;;;;;;3.15;0.75;;;15.60;84.90;;;;;;5000559;28;20062;-77
2021/10/20 08:47:53;;;;;;;2.80;0.90;;;15.60;84.90;;;;;;5009113;28;20072;-88
2021/10/20 08:50:24;;;;;;;4.97;1.08;;;15.60;84.90;;;;;;5025188;28;20030;-86
2021/10/20 08:52:50;;;;;;;1.88;0.80;;;15.60;84.80;;;;;;5001859;28;20437;-81
2021/10/20 08:55:18;;;;;;;2.83;1.00;;;15.60;84.70;;;;;;4996179;28;20037;-81
2021/10/20 08:57:45;;;;;;;9.48;1.80;;;15.60;84.70;;;;;;5004593;28;20046;-81
2021/10/20 09:00:13;;;;;;;2.97;1.00;;;15.60;84.70;;;;;;4969631;28;20027;-85
2021/10/20 09:02:41;;;;;;;3.63;1.00;;;15.60;84.70;;;;;;5002951;28;20371;-79
2021/10/20 09:05:09;;;;;;;6.30;1.42;;;15.60;84.60;;;;;;4988550;28;20022;-77
2021/10/20 09:07:37;;;;;;;3.22;1.25;;;15.60;84.60;;;;;;4989089;28;20027;-80
2021/10/20 09:10:05;;;;;;;1.55;0.85;;;15.60;84.60;;;;;;5007618;28;20232;-78
2021/10/20 09:12:37;;;;;;;3.92;1.25;;;15.60;84.60;;;;;;5007870;28;20084;-77
2021/10/20 09:15:19;;;;;;;4.57;0.82;;;15.60;84.60;;;;;;5003491;28;20401;-82
2021/10/20 09:17:48;;;;;;;4.78;1.98;;;15.60;84.60;;;;;;4986143;28;20495;-80
2021/10/20 09:20:24;;;;;;;5.93;1.10;;;15.70;84.70;;;;;;5008570;28;20052;-90
2021/10/20 09:23:03;;;;;;;6.47;0.90;;;15.70;84.70;;;;;;5002121;28;20506;-80
2021/10/20 09:25:38;;;;;;;8.60;2.17;;;15.70;84.70;;;;;;5013479;28;20040;-90
2021/10/20 09:28:07;;;;;;;12.80;3.30;;;15.70;84.80;;;;;;5006372;28;20105;-85
2021/10/20 09:30:38;;;;;;;13.43;3.05;;;15.80;85.30;;;;;;4991273;28;20065;-88
2021/10/20 09:33:07;;;;;;;14.15;4.93;;;15.80;85.80;;;;;;4992707;28;20026;-92
2021/10/20 09:35:34;;;;;;;13.73;4.90;;;15.90;86.40;;;;;;4994689;28;20488;-89
2021/10/20 09:38:01;;;;;;;19.58;3.55;;;16.00;86.70;;;;;;5010315;28;20053;-83
2021/10/20 09:40:48;;;;;;;10.10;3.42;;;16.10;87.10;;;;;;4988987;28;20068;-82
2021/10/20 09:43:20;;;;;;;7.50;3.42;;;16.20;87.60;;;;;;4986745;28;20062;-83
2021/10/20 09:45:47;;;;;;;12.43;3.25;;;16.30;87.60;;;;;;4980938;28;20102;-92
2021/10/20 09:48:22;;;;;;;9.65;3.00;;;16.40;87.80;;;;;;4984211;28;20054;-89
2021/10/20 09:51:11;;;;;;;9.95;3.60;;;16.40;87.90;;;;;;4995726;28;20053;-85
2021/10/20 09:53:39;;;;;;;9.27;3.20;;;16.50;88.00;;;;;;4991854;28;20034;-91
2021/10/20 09:56:27;;;;;;;11.90;4.72;;;16.60;88.00;;;;;;5003814;28;20049;-88
2021/10/20 09:58:54;;;;;;;9.25;2.75;;;16.70;88.10;;;;;;5013208;28;20104;-84
2021/10/20 10:01:22;;;;;;;10.40;3.00;;;16.70;87.90;;;;;;4985202;28;20033;-84
2021/10/20 10:03:49;;;;;;;11.02;2.65;;;16.80;87.90;;;;;;4985373;28;20389;-87
2021/10/20 10:06:16;;;;;;;8.57;3.38;;;16.80;87.80;;;;;;4989615;28;20468;-90
2021/10/20 10:08:43;;;;;;;5.05;2.47;;;16.90;87.70;;;;;;4981573;28;20055;-83
2021/10/20 10:11:09;;;;;;;7.68;3.13;;;16.90;87.60;;;;;;5008228;28;20030;-87
2021/10/20 10:13:51;;;;;;;5.85;2.33;;;17.00;87.50;;;;;;5011726;28;20125;-84
2021/10/20 10:16:22;;;;;;;7.07;2.33;;;17.00;87.30;;;;;;4988863;28;20038;-88
2021/10/20 10:18:48;;;;;;;7.10;2.38;;;17.10;87.30;;;;;;4988731;28;20064;-82
2021/10/20 10:21:31;;;;;;;6.07;2.10;;;17.20;87.30;;;;;;5004640;28;20102;-87
2021/10/20 10:23:59;;;;;;;5.70;2.03;;;17.20;87.00;;;;;;4990301;28;20016;-95
2021/10/20 10:26:26;;;;;;;9.40;2.72;;;17.40;87.10;;;;;;4990055;28;20140;-87
2021/10/20 10:29:10;;;;;;;6.35;2.72;;;17.50;86.80;;;;;;4991093;28;20030;-81
2021/10/20 10:31:42;;;;;;;6.55;2.38;;;17.60;86.40;;;;;;4990186;28;20106;-89
2021/10/20 10:34:18;;;;;;;7.82;1.92;;;17.80;86.20;;;;;;4989189;28;20499;-92
2021/10/20 10:36:53;;;;;;;8.18;3.00;;;17.90;85.80;;;;;;4988650;28;20038;-89
2021/10/20 10:39:19;;;;;;;7.53;2.38;;;18.00;85.70;;;;;;4989588;28;20042;-86
2021/10/20 10:41:46;;;;;;;7.43;2.28;;;18.10;85.40;;;;;;4988452;28;20169;-90
2021/10/20 10:44:18;;;;;;;8.85;2.00;;;18.20;85.10;;;;;;4988380;28;20541;-87
2021/10/20 10:47:07;;;;;;;10.40;2.00;;;18.30;85.10;;;;;;4987760;28;20093;-90
2021/10/20 10:49:52;;;;;;;11.63;2.40;;;18.30;84.00;;;;;;4987783;28;20466;-87
2021/10/20 10:52:18;;;;;;;13.32;3.28;;;18.40;83.70;;;;;;5002501;28;20045;-83
2021/10/20 10:55:14;;;;;;;7.00;2.30;;;18.40;83.60;;;;;;4987631;28;20457;-82
2021/10/20 10:57:41;;;;;;;8.45;2.38;;;18.40;83.30;;;;;;4988874;28;20113;-88
2021/10/20 11:00:18;;;;;;;8.38;2.58;;;18.40;83.20;;;;;;5011101;28;20318;-87
2021/10/20 11:02:49;;;;;;;8.90;2.63;;;18.50;82.90;;;;;;5008281;28;20041;-88
2021/10/20 11:05:26;;;;;;;6.50;2.15;;;18.50;82.60;;;;;;4990822;28;20580;-84
2021/10/20 11:07:54;;;;;;;7.40;2.50;;;18.50;82.40;;;;;;4993919;28;20538;-87
2021/10/20 11:10:21;;;;;;;8.88;3.17;;;18.50;82.20;;;;;;4993479;28;20089;-84
2021/10/20 11:12:49;;;;;;;8.63;2.97;;;18.50;82.00;;;;;;4996757;28;20045;-81
2021/10/20 11:15:16;;;;;;;7.05;1.95;;;18.50;81.90;;;;;;5011832;28;20393;-87
2021/10/20 11:17:42;;;;;;;11.93;2.75;;;18.50;81.70;;;;;;5010914;28;20100;-84
2021/10/20 11:20:11;;;;;;;6.65;2.15;;;18.60;81.60;;;;;;4990142;28;20030;-82
2021/10/20 11:22:37;;;;;;;8.57;3.38;;;18.60;81.30;;;;;;4989832;28;20576;-84
2021/10/20 11:25:09;;;;;;;10.55;2.75;;;18.60;81.20;;;;;;4996790;28;20069;-81
2021/10/20 11:27:37;;;;;;;7.80;2.50;;;18.60;81.00;;;;;;5008503;28;20493;-86
2021/10/20 11:30:07;;;;;;;9.45;2.85;;;18.60;81.00;;;;;;4980066;28;20030;-82
2021/10/20 11:32:35;;;;;;;7.43;3.10;;;18.60;81.40;;;;;;4987796;28;20108;-89
2021/10/20 11:35:03;;;;;;;7.93;2.15;;;18.60;80.80;;;;;;4990363;28;20084;-77
2021/10/20 11:37:29;;;;;;;9.52;2.80;;;18.60;80.70;;;;;;4989076;28;20034;-84
2021/10/20 11:39:58;;;;;;;9.43;2.95;;;18.60;80.60;;;;;;4979369;28;20038;-83
2021/10/20 11:42:25;;;;;;;9.05;1.85;;;18.60;80.60;;;;;;4990739;28;20402;-85
2021/10/20 11:44:52;;;;;;;11.07;2.80;;;18.70;80.60;;;;;;4988295;28;20034;-84
2021/10/20 11:47:20;;;;;;;9.27;2.55;;;18.80;80.60;;;;;;4988955;28;20054;-85
2021/10/20 11:49:52;;;;;;;8.40;2.35;;;18.80;80.30;;;;;;5007481;28;20034;-83
2021/10/20 11:52:23;;;;;;;11.83;2.47;;;18.80;80.00;;;;;;4990119;28;20034;-82
2021/10/20 11:54:52;;;;;;;6.53;1.92;;;18.90;79.90;;;;;;4993188;28;20030;-80
2021/10/20 11:57:18;;;;;;;7.60;2.63;;;18.90;79.70;;;;;;5009244;28;20034;-80
2021/10/20 11:59:46;;;;;;;9.90;2.15;;;19.00;79.60;;;;;;5008068;28;20041;-80
2021/10/20 12:02:13;;;;;;;10.30;3.05;;;19.00;79.40;;;;;;5008699;28;20033;-78
2021/10/20 12:04:40;;;;;;;4.65;1.63;;;19.00;79.20;;;;;;4981983;28;20062;-80
2021/10/20 12:07:09;;;;;;;7.35;2.20;;;19.00;79.00;;;;;;4988978;28;20026;-78
2021/10/20 12:09:40;;;;;;;6.68;1.77;;;19.00;78.90;;;;;;4988977;28;20130;-77
2021/10/20 12:12:07;;;;;;;6.95;1.98;;;19.00;78.80;;;;;;4989217;28;20121;-80
2021/10/20 12:14:35;;;;;;;7.60;1.60;;;19.00;78.70;;;;;;4990003;28;20034;-79
2021/10/20 12:17:02;;;;;;;9.10;2.45;;;18.90;78.40;;;;;;4989068;28;20053;-81
2021/10/20 12:19:33;;;;;;;5.95;1.85;;;18.90;78.30;;;;;;4987715;28;20096;-83
2021/10/20 12:22:06;;;;;;;7.53;1.80;;;18.90;78.30;;;;;;4990011;28;20118;-79
2021/10/20 12:24:32;;;;;;;;;;;18.80;78.20;;;;;;4991811;28;20076;-86
2021/10/20 12:26:58;;;;;;;8.02;1.60;;;18.80;78.50;;;;;;5008850;28;20413;-80
2021/10/20 12:29:26;;;;;;;8.48;2.08;;;18.90;78.60;;;;;;4993855;28;20045;-80
2021/10/20 12:31:58;;;;;;;10.63;3.17;;;18.90;78.40;;;;;;4989058;28;20429;-82
2021/10/20 12:34:27;;;;;;;12.02;3.65;;;18.90;78.50;;;;;;4989074;28;20053;-80
2021/10/20 12:36:54;;;;;;;12.75;3.00;;;18.90;78.60;;;;;;4988426;28;20382;-82
2021/10/20 12:39:20;;;;;;;9.20;2.80;;;18.90;78.50;;;;;;4988880;28;20072;-82
2021/10/20 12:41:47;;;;;;;10.80;3.25;;;18.90;78.30;;;;;;4988847;28;20554;-82
2021/10/20 12:44:13;;;;;;;13.32;2.95;;;18.90;78.20;;;;;;4987838;28;20109;-82
2021/10/20 12:46:43;;;;;;;12.95;3.15;;;18.90;78.00;;;;;;4988619;28;20449;-83